EDT,Max TemperatureF,Mean TemperatureF,Min TemperatureF,Max Dew PointF,MeanDew PointF,Min DewpointF,Max Humidity, Mean Humidity, Min Humidity, Max Sea Level PressureIn, Mean Sea Level PressureIn, Min Sea Level PressureIn, Max VisibilityMiles, Mean VisibilityMiles, Min VisibilityMiles, Max Wind SpeedMPH, Mean Wind SpeedMPH, Max Gust SpeedMPH,PrecipitationIn, CloudCover, Events, WindDirDegrees
2013-5-1,75,59,43,36,28,21,53,33,13,30.44,30.39,30.31,10,10,4,12,8,17,0.00,0,,131
2013-5-2,79,62,45,43,36,28,65,44,23,30.47,30.39,30.30,10,10,5,25,10,33,0.00,3,,102
2013-5-3,68,57,45,39,33,23,62,45,27,30.51,30.42,30.34,10,10,8,15,10,22,0.00,1,,137
2013-5-4,73,58,43,43,35,25,82,50,17,30.37,30.29,30.19,10,10,6,15,8,16,0.00,0,,139
2013-5-5,73,57,41,34,28,25,55,37,19,30.29,30.22,30.15,10,10,8,16,8,23,0.00,0,,133
2013-5-6,75,57,39,39,33,27,79,50,20,30.24,30.17,30.08,10,10,4,13,6,,0.00,0,,138
2013-5-7,81,62,43,50,37,28,76,46,16,30.17,30.11,30.03,10,10,9,13,7,,0.00,0,,131
2013-5-8,72,60,48,57,51,37,90,70,49,30.18,30.11,30.03,10,10,7,18,9,23,0.20,4,,135
2013-5-9,68,61,54,57,52,46,100,74,48,30.02,29.94,29.87,10,10,10,12,7,17,0.00,3,,156
2013-5-10,73,61,48,55,50,46,93,67,41,29.98,29.92,29.84,10,10,10,10,6,,0.00,3,,160
2013-5-11,68,63,57,61,55,50,90,75,60,29.84,29.72,29.65,10,10,4,10,6,18,0.06,8,,185
2013-5-12,57,50,43,52,37,21,83,55,27,29.81,29.70,29.63,10,10,10,20,7,29,0.00,5,,280
2013-5-13,46,42,37,30,27,25,70,58,45,30.05,29.93,29.81,10,10,10,17,9,28,0.00,8,,241
2013-5-14,52,41,30,34,29,25,92,65,38,30.10,30.05,29.99,10,10,10,12,5,17,0.00,3,,55
2013-5-15,61,46,30,46,35,25,86,56,26,30.05,29.85,29.63,10,10,7,20,10,22,0.07,3,Thunderstorm,146
2013-5-16,73,58,43,46,38,30,89,56,22,29.87,29.70,29.64,10,10,6,18,8,29,0.00,2,,263
2013-5-17,64,54,43,39,36,32,82,57,32,30.24,30.08,29.88,10,10,10,16,8,25,0.00,2,,326
2013-5-18,70,54,37,43,35,28,85,54,23,30.31,30.26,30.21,10,10,10,13,6,,0.00,1,,123
2013-5-19,66,56,45,54,47,39,93,71,48,30.30,30.25,30.15,10,10,8,12,8,17,0.17,5,,155
2013-5-20,72,63,54,63,57,52,100,87,73,30.15,30.04,29.97,10,10,3,8,4,,0.00,7,,135
2013-5-21,79,67,55,64,60,52,93,77,60,29.98,29.90,29.82,10,10,4,18,8,24,0.11,4,Thunderstorm,148
2013-5-22,81,68,55,66,60,52,93,78,62,29.90,29.84,29.80,10,10,4,21,10,25,0.46,5,Thunderstorm,150
2013-5-23,77,70,63,64,61,57,93,74,54,29.83,29.79,29.75,10,10,9,16,10,20,0.12,5,,150
2013-5-24,63,53,43,61,47,39,96,91,86,29.97,29.84,29.65,10,8,1,15,9,25,0.72,8,,333
2013-5-25,43,40,37,41,39,36,96,91,85,29.96,29.90,29.86,10,10,5,16,11,30,0.68,8,,334
2013-5-26,48,42,36,43,38,36,100,86,71,30.11,29.96,29.82,10,8,0,15,9,29,0.07,7,,333
2013-5-27,66,49,32,43,36,30,100,65,29,30.20,30.13,30.09,10,9,0,12,7,18,0.00,1,,47
2013-5-28,72,56,39,48,40,34,86,57,27,30.24,30.18,30.11,10,10,10,12,6,16,0.00,1,,159
2013-5-29,66,61,55,61,56,43,97,76,55,30.12,30.03,29.96,10,10,7,15,10,23,0.07,7,Thunderstorm,138
2013-5-30,84,73,61,64,62,61,93,69,44,30.10,30.06,30.03,10,10,4,10,5,16,0.00,3,,258
2013-5-31,88,74,59,66,61,57,97,68,39,30.12,30.04,29.95,10,10,10,14,7,18,0.00,1,,173